Time;durP1;ratioP1;P1;durP2;ratioP2;P2;SDS_P1;SDS_P2;PMS_P1;PMS_P2;Temp;Humidity;BMP_temperature;BMP_pressure;BME280_temperature;BME280_humidity;BME280_pressure;Samples;Min_cycle;Max_cycle;Signal;HPM_P1;HPM_P2
2023/10/13 00:01:11;;;;;;;20.67;9.82;;;16.30;85.40;;;;;;5091765;28;20494;-86
2023/10/13 00:03:39;;;;;;;21.55;10.70;;;16.30;85.40;;;;;;5091393;28;20051;-86
2023/10/13 00:06:08;;;;;;;21.30;9.50;;;16.20;85.30;;;;;;5074895;28;20481;-86
2023/10/13 00:08:36;;;;;;;18.73;9.90;;;16.20;85.30;;;;;;5074783;28;20555;-86
2023/10/13 00:11:04;;;;;;;17.10;9.73;;;16.10;85.50;;;;;;5091406;28;20054;-87
2023/10/13 00:13:50;;;;;;;22.90;10.10;;;16.10;85.70;;;;;;5091938;28;20538;-87
2023/10/13 00:16:21;;;;;;;19.42;10.38;;;16.00;85.90;;;;;;5074753;28;20040;-87
2023/10/13 00:18:54;;;;;;;19.45;10.57;;;16.00;86.00;;;;;;5072229;28;20051;-86
2023/10/13 00:21:33;;;;;;;21.77;10.90;;;16.00;86.00;;;;;;5091231;28;20050;-86
2023/10/13 00:24:02;;;;;;;22.13;11.83;;;16.10;86.00;;;;;;5074711;28;20131;-87
2023/10/13 00:26:30;;;;;;;21.95;11.40;;;16.00;86.20;;;;;;5074702;28;20135;-87
2023/10/13 00:29:09;;;;;;;19.67;11.30;;;16.00;86.30;;;;;;5092071;28;20397;-86
2023/10/13 00:31:40;;;;;;;22.45;11.63;;;16.10;86.20;;;;;;5075004;28;20512;-87
2023/10/13 00:34:28;;;;;;;23.70;10.95;;;16.10;86.30;;;;;;5073405;28;20578;-87
2023/10/13 00:39:44;;;;;;;20.52;10.38;;;16.20;86.00;;;;;;5095035;28;20454;-87
2023/10/13 00:42:19;;;;;;;19.02;10.32;;;16.20;85.90;;;;;;5095224;28;20135;-87
2023/10/13 00:44:50;;;;;;;21.90;10.45;;;16.20;85.60;;;;;;5078485;28;20036;-88
2023/10/13 00:50:21;;;;;;;18.77;8.50;;;16.30;85.50;;;;;;5064489;28;20032;-87
2023/10/13 00:52:51;;;;;;;19.27;9.38;;;16.30;85.30;;;;;;5064399;28;20054;-87
2023/10/13 00:55:22;;;;;;;18.42;8.45;;;16.30;85.20;;;;;;5078190;28;20048;-87
2023/10/13 00:57:57;;;;;;;14.60;7.47;;;16.30;84.90;;;;;;5094568;28;20104;-87
2023/10/13 01:00:28;;;;;;;18.85;8.07;;;16.40;84.90;;;;;;5095113;28;20459;-87
2023/10/13 01:03:06;;;;;;;20.87;8.47;;;16.50;84.70;;;;;;5077583;28;20044;-87
2023/10/13 01:05:37;;;;;;;17.70;9.10;;;16.50;84.50;;;;;;5095198;28;20097;-87
2023/10/13 01:08:04;;;;;;;19.25;8.63;;;16.40;84.60;;;;;;5092284;28;20135;-87
2023/10/13 01:10:32;;;;;;;17.67;9.25;;;16.40;84.60;;;;;;5093836;28;20421;-87
2023/10/13 01:13:02;;;;;;;18.15;9.68;;;16.30;84.80;;;;;;5094355;28;20051;-86
2023/10/13 01:15:32;;;;;;;19.27;10.03;;;16.20;85.10;;;;;;5074477;28;20046;-87
2023/10/13 01:18:13;;;;;;;19.83;10.35;;;16.20;85.20;;;;;;5125835;27;20457;-87
2023/10/13 01:20:45;;;;;;;18.27;10.00;;;16.20;85.40;;;;;;5093981;28;20059;-87
2023/10/13 01:23:19;;;;;;;23.83;11.55;;;16.30;85.40;;;;;;5094385;28;20052;-86
2023/10/13 01:25:48;;;;;;;25.45;12.45;;;16.30;85.50;;;;;;5094778;28;20043;-87
2023/10/13 01:28:16;;;;;;;25.83;11.80;;;16.30;85.60;;;;;;5077995;28;20054;-87
2023/10/13 01:30:49;;;;;;;30.45;12.93;;;16.30;85.60;;;;;;5077172;28;20558;-87
2023/10/13 01:33:26;;;;;;;25.30;11.80;;;16.30;85.70;;;;;;5077574;28;20442;-86
2023/10/13 01:35:56;;;;;;;23.40;11.43;;;16.30;85.90;;;;;;5077244;28;20036;-86
2023/10/13 01:38:28;;;;;;;19.27;11.43;;;16.30;85.80;;;;;;5077516;28;20481;-87
2023/10/13 01:40:56;;;;;;;19.87;11.90;;;16.30;85.60;;;;;;5094006;28;20076;-87
2023/10/13 01:43:24;;;;;;;20.83;11.00;;;16.30;85.60;;;;;;5077578;28;20089;-87
2023/10/13 01:45:51;;;;;;;20.13;10.00;;;16.20;85.60;;;;;;5094287;28;20040;-87
2023/10/13 01:48:21;;;;;;;21.08;10.02;;;16.20;85.60;;;;;;5077056;28;20048;-87
2023/10/13 01:50:55;;;;;;;20.10;10.52;;;16.10;85.90;;;;;;5093914;28;20119;-86
2023/10/13 01:53:23;;;;;;;18.53;9.53;;;16.10;86.00;;;;;;5076800;28;20131;-87
2023/10/13 01:55:50;;;;;;;19.45;10.73;;;16.20;85.90;;;;;;5076198;28;20512;-86
2023/10/13 01:58:22;;;;;;;21.40;10.73;;;16.10;85.80;;;;;;5093394;28;20123;-86
2023/10/13 02:00:50;;;;;;;22.55;11.95;;;16.10;86.10;;;;;;5076458;28;20040;-86
2023/10/13 02:03:17;;;;;;;21.20;11.38;;;16.10;86.20;;;;;;5076251;28;20142;-86
2023/10/13 02:05:51;;;;;;;21.10;10.50;;;16.00;86.30;;;;;;5092443;28;20043;-86
2023/10/13 02:08:26;;;;;;;23.60;11.00;;;16.00;86.50;;;;;;5093614;28;20472;-87
2023/10/13 02:11:00;;;;;;;22.25;11.95;;;16.00;86.30;;;;;;5093306;28;20036;-86
2023/10/13 02:13:29;;;;;;;21.05;10.73;;;16.00;86.40;;;;;;5076663;28;20048;-87
2023/10/13 02:16:01;;;;;;;21.52;11.88;;;15.90;86.60;;;;;;5076451;28;20119;-87
2023/10/13 02:19:16;;;;;;;21.93;11.83;;;15.90;86.80;;;;;;5076656;28;20050;-86
2023/10/13 02:21:16;;;;;;;24.42;14.38;;;15.90;87.00;;;;;;5082952;28;20098;-87
2023/10/13 02:23:59;;;;;;;22.95;11.98;;;15.80;87.20;;;;;;5076090;28;20052;-87
2023/10/13 02:26:32;;;;;;;24.00;12.65;;;15.80;87.30;;;;;;5073584;28;20118;-86
2023/10/13 02:29:06;;;;;;;23.02;11.60;;;15.80;87.40;;;;;;5076152;28;20039;-86
2023/10/13 02:31:39;;;;;;;21.43;12.13;;;15.90;87.20;;;;;;5092908;28;20044;-86
2023/10/13 02:34:11;;;;;;;22.88;11.85;;;15.90;87.30;;;;;;5074945;28;20044;-87
2023/10/13 02:36:48;;;;;;;23.70;12.20;;;15.90;87.30;;;;;;5072819;28;20041;-86
2023/10/13 02:39:16;;;;;;;18.33;9.98;;;16.00;87.20;;;;;;5092543;28;20101;-87
2023/10/13 02:41:48;;;;;;;17.92;10.60;;;15.90;87.00;;;;;;5080779;28;20036;-87
2023/10/13 02:44:31;;;;;;;18.33;10.60;;;16.00;87.00;;;;;;5080898;28;20525;-86
2023/10/13 02:46:58;;;;;;;22.45;11.20;;;16.00;86.80;;;;;;5093008;28;20070;-86
2023/10/13 02:49:27;;;;;;;19.98;11.05;;;15.90;86.90;;;;;;5092465;28;20489;-87
2023/10/13 02:51:55;;;;;;;22.98;11.05;;;16.00;86.90;;;;;;5092617;28;20472;-87
2023/10/13 02:54:30;;;;;;;19.45;10.57;;;15.90;86.90;;;;;;5088416;28;20040;-87
2023/10/13 02:56:59;;;;;;;18.43;9.73;;;15.80;87.20;;;;;;5075452;28;20040;-86
2023/10/13 03:02:28;;;;;;;15.68;9.65;;;15.80;87.20;;;;;;5092506;28;20101;-86
2023/10/13 03:05:08;;;;;;;20.13;9.52;;;15.70;87.30;;;;;;5073455;28;20052;-86
2023/10/13 03:07:36;;;;;;;15.45;8.85;;;15.70;87.30;;;;;;5092272;28;20047;-86
2023/10/13 03:10:15;;;;;;;15.17;8.40;;;15.60;87.40;;;;;;5101991;28;20050;-87
2023/10/13 03:12:47;;;;;;;20.13;9.18;;;15.60;87.30;;;;;;5090562;28;20036;-86
2023/10/13 03:15:20;;;;;;;17.30;10.10;;;15.60;87.60;;;;;;5091854;28;20048;-86
2023/10/13 03:17:47;;;;;;;20.17;9.43;;;15.60;87.70;;;;;;5075370;28;20085;-86
2023/10/13 03:20:24;;;;;;;18.52;9.43;;;15.60;87.80;;;;;;5075443;28;20300;-87
2023/10/13 03:22:54;;;;;;;17.73;10.37;;;15.70;87.80;;;;;;5075432;28;20055;-86
2023/10/13 03:25:29;;;;;;;20.52;11.50;;;15.70;87.80;;;;;;5075461;28;20398;-87
2023/10/13 03:30:52;;;;;;;30.75;15.77;;;15.80;87.70;;;;;;5091686;28;20055;-87
2023/10/13 03:33:25;;;;;;;31.45;16.55;;;15.80;87.80;;;;;;5091712;28;20505;-87
2023/10/13 03:35:54;;;;;;;27.63;15.80;;;15.80;87.70;;;;;;5072676;28;20063;-86
2023/10/13 03:38:26;;;;;;;27.27;15.77;;;16.00;87.60;;;;;;5075190;28;20094;-86
2023/10/13 03:41:05;;;;;;;22.52;12.43;;;16.00;87.20;;;;;;5075138;28;20051;-87
2023/10/13 03:43:44;;;;;;;19.15;9.70;;;16.10;86.90;;;;;;5091829;28;20489;-86
2023/10/13 03:46:12;;;;;;;17.63;8.95;;;16.10;86.60;;;;;;5091857;28;20055;-86
2023/10/13 03:48:52;;;;;;;16.87;8.90;;;16.00;86.30;;;;;;5091753;28;20093;-86
2023/10/13 03:51:20;;;;;;;16.25;8.40;;;16.00;86.40;;;;;;5073124;28;20036;-86
2023/10/13 03:53:52;;;;;;;14.38;7.32;;;15.90;86.40;;;;;;5075006;28;20032;-86
2023/10/13 03:56:38;;;;;;;15.38;8.23;;;15.90;86.70;;;;;;5074740;28;20040;-86
2023/10/13 03:59:09;;;;;;;16.15;8.38;;;15.80;87.00;;;;;;5084412;28;20044;-86
2023/10/13 04:04:11;;;;;;;16.08;8.35;;;15.70;87.30;;;;;;5091883;28;20071;-87
2023/10/13 04:17:29;;;;;;;12.40;6.35;;;15.70;87.00;;;;;;5096058;28;20044;-86
2023/10/13 04:25:38;;;;;;;14.80;7.30;;;15.90;86.70;;;;;;5095283;28;20139;-86
2023/10/13 04:28:51;;;;;;;15.13;8.67;;;15.80;86.50;;;;;;5093269;28;20040;-86
2023/10/13 04:30:59;;;;;;;16.25;8.38;;;15.80;86.50;;;;;;5088096;28;20457;-85
2023/10/13 04:36:20;;;;;;;12.68;7.18;;;15.80;86.70;;;;;;5094290;28;20112;-86
2023/10/13 04:41:42;;;;;;;15.60;8.30;;;15.80;86.70;;;;;;5094087;28;20051;-86
2023/10/13 04:49:49;;;;;;;13.77;7.25;;;15.80;86.50;;;;;;5092641;28;20139;-86
2023/10/13 04:52:38;;;;;;;17.85;8.48;;;15.80;86.40;;;;;;5077810;28;20101;-90
2023/10/13 05:01:16;;;;;;;19.58;8.48;;;16.00;86.10;;;;;;5062716;28;20048;-90
2023/10/13 05:44:33;;;;;;;20.50;10.77;;;16.00;86.10;;;;;;5095802;28;20036;-93
2023/10/13 05:50:13;;;;;;;15.40;8.03;;;16.20;85.10;;;;;;5094981;28;20047;-88
2023/10/13 06:28:43;;;;;;;12.68;7.18;;;16.30;85.10;;;;;;5093990;28;20040;-88
2023/10/13 06:31:25;;;;;;;16.70;6.43;;;16.40;85.10;;;;;;5075960;28;20075;-88
2023/10/13 06:33:55;;;;;;;13.55;6.15;;;16.30;84.80;;;;;;5076374;28;20135;-88
2023/10/13 06:36:23;;;;;;;13.27;6.53;;;16.30;84.90;;;;;;5077065;28;20082;-88
2023/10/13 06:39:03;;;;;;;13.00;6.13;;;16.30;85.20;;;;;;5093813;28;20036;-88
2023/10/13 06:41:40;;;;;;;12.90;6.43;;;16.40;84.60;;;;;;5076931;28;20131;-88
2023/10/13 06:44:14;;;;;;;13.07;6.10;;;16.50;85.00;;;;;;5093557;28;20043;-88
2023/10/13 06:46:43;;;;;;;11.93;6.22;;;16.50;84.80;;;;;;5093468;28;20040;-88
2023/10/13 06:49:12;;;;;;;11.70;6.35;;;16.50;84.20;;;;;;5076128;28;20051;-88
2023/10/13 06:51:40;;;;;;;11.70;6.22;;;16.50;84.60;;;;;;5093494;28;20040;-88
2023/10/13 06:54:18;;;;;;;13.77;6.25;;;16.50;84.50;;;;;;5093625;28;20050;-87
2023/10/13 06:56:46;;;;;;;15.83;6.90;;;16.60;84.20;;;;;;5093469;28;20494;-88
2023/10/13 06:59:13;;;;;;;17.38;6.95;;;16.60;83.60;;;;;;5076892;28;20436;-88
2023/10/13 07:01:41;;;;;;;16.65;6.75;;;16.60;83.80;;;;;;5076740;28;20074;-88
2023/10/13 07:04:13;;;;;;;12.95;6.78;;;16.70;83.90;;;;;;5076697;28;20044;-88
2023/10/13 07:06:48;;;;;;;13.70;7.00;;;16.70;83.70;;;;;;5093958;28;20036;-88
2023/10/13 07:10:00;;;;;;;11.83;6.73;;;16.70;83.80;;;;;;5093815;28;20040;-87
2023/10/13 07:12:16;;;;;;;13.68;6.88;;;16.80;84.10;;;;;;5087957;28;20040;-88
2023/10/13 07:14:51;;;;;;;12.77;6.55;;;16.80;83.90;;;;;;5093157;28;20040;-88
2023/10/13 07:17:25;;;;;;;10.50;6.22;;;17.00;83.10;;;;;;5090451;28;20040;-88
2023/10/13 07:19:55;;;;;;;14.23;6.57;;;17.00;82.60;;;;;;5074277;28;20044;-88
2023/10/13 07:22:23;;;;;;;14.13;6.53;;;17.00;82.70;;;;;;5070968;28;20140;-88
2023/10/13 07:24:51;;;;;;;12.98;7.00;;;17.00;82.90;;;;;;5093179;28;20127;-88
2023/10/13 07:27:25;;;;;;;14.15;7.43;;;17.10;82.90;;;;;;5076751;28;20040;-88
2023/10/13 07:29:57;;;;;;;12.80;6.95;;;17.10;82.30;;;;;;5076184;28;20143;-87
2023/10/13 07:32:25;;;;;;;15.82;8.02;;;17.20;82.20;;;;;;5076321;28;20048;-88
2023/10/13 07:34:57;;;;;;;16.47;7.43;;;17.20;82.40;;;;;;5076160;28;20036;-87
2023/10/13 07:37:28;;;;;;;12.73;6.97;;;17.30;81.90;;;;;;5093261;28;20048;-88
2023/10/13 07:39:58;;;;;;;12.43;6.28;;;17.30;81.40;;;;;;5093053;28;20452;-88
2023/10/13 07:42:31;;;;;;;13.15;6.35;;;17.40;81.70;;;;;;5092678;28;20044;-88
2023/10/13 07:44:59;;;;;;;13.20;6.22;;;17.30;81.30;;;;;;5076984;28;20526;-88
2023/10/13 07:47:28;;;;;;;15.57;5.77;;;17.20;81.50;;;;;;5097768;28;20070;-88
2023/10/13 07:49:58;;;;;;;13.55;6.32;;;17.30;81.60;;;;;;5097808;28;20044;-88
2023/10/13 07:52:36;;;;;;;12.07;5.72;;;17.40;81.50;;;;;;5089269;28;20075;-88
2023/10/13 07:55:19;;;;;;;11.43;6.10;;;17.50;81.60;;;;;;5096850;28;20111;-88
2023/10/13 07:57:53;;;;;;;11.52;6.03;;;17.60;81.30;;;;;;5079895;28;20497;-87
2023/10/13 08:00:29;;;;;;;13.87;5.90;;;17.70;81.70;;;;;;5080455;28;20040;-87
2023/10/13 08:03:09;;;;;;;15.20;6.15;;;17.80;81.60;;;;;;5079325;28;20044;-88
2023/10/13 08:05:42;;;;;;;11.93;5.97;;;17.80;81.00;;;;;;5095785;28;20122;-89
2023/10/13 08:08:14;;;;;;;13.05;6.30;;;17.90;80.90;;;;;;5096874;28;20413;-91
2023/10/13 08:10:45;;;;;;;13.02;6.32;;;17.90;80.60;;;;;;5089127;28;20109;-90
2023/10/13 08:13:13;;;;;;;13.43;6.10;;;18.00;80.50;;;;;;5095905;28;20036;-90
2023/10/13 08:15:47;;;;;;;12.30;6.25;;;18.10;80.50;;;;;;5087960;28;20565;-91
2023/10/13 08:18:28;;;;;;;11.73;6.05;;;18.10;80.00;;;;;;5079958;28;20040;-91
2023/10/13 08:21:05;;;;;;;12.38;6.45;;;18.20;80.10;;;;;;5079622;28;20037;-91
2023/10/13 08:34:49;;;;;;;14.55;5.72;;;18.70;79.30;;;;;;5095653;28;20040;-90
2023/10/13 08:48:12;;;;;;;13.25;6.45;;;19.00;78.30;;;;;;5095207;28;20498;-90
2023/10/13 09:04:22;;;;;;;9.35;3.45;;;19.20;72.90;;;;;;5094635;28;20054;-88
2023/10/13 09:09:34;;;;;;;10.55;4.18;;;19.30;72.90;;;;;;5095024;28;20050;-88
2023/10/13 09:12:14;;;;;;;9.52;4.40;;;19.30;72.00;;;;;;5078238;28;20486;-88
2023/10/13 09:14:44;;;;;;;9.25;3.47;;;19.40;72.90;;;;;;5094560;28;20474;-88
2023/10/13 09:19:55;;;;;;;8.77;3.83;;;19.60;72.30;;;;;;5095079;28;20078;-88
2023/10/13 09:22:28;;;;;;;9.60;3.83;;;19.60;71.70;;;;;;5074998;28;20062;-89
2023/10/13 09:25:00;;;;;;;8.40;3.38;;;19.70;71.30;;;;;;5094775;28;20042;-89
2023/10/13 09:27:37;;;;;;;10.02;3.88;;;19.80;72.00;;;;;;5095328;28;20066;-89
2023/10/13 09:30:22;;;;;;;9.40;3.78;;;20.00;71.60;;;;;;5094852;28;20044;-88
2023/10/13 09:33:04;;;;;;;11.50;3.63;;;20.10;71.80;;;;;;5094913;28;20079;-88
2023/10/13 09:35:33;;;;;;;10.90;3.65;;;20.20;70.10;;;;;;5077483;28;20047;-87
2023/10/13 09:38:03;;;;;;;8.48;3.60;;;20.30;69.60;;;;;;5077788;28;20040;-88
2023/10/13 09:43:07;;;;;;;8.15;3.80;;;20.40;69.00;;;;;;5094859;28;20048;-88
2023/10/13 09:46:15;;;;;;;8.57;3.60;;;20.50;68.90;;;;;;5077559;28;20134;-88
2023/10/13 09:48:45;;;;;;;8.10;3.45;;;20.60;69.40;;;;;;5092264;28;20436;-88
2023/10/13 09:51:21;;;;;;;8.68;3.90;;;20.70;69.10;;;;;;5091701;28;20075;-89
2023/10/13 09:54:00;;;;;;;10.32;3.70;;;20.80;68.30;;;;;;5094304;28;20051;-88
2023/10/13 09:56:55;;;;;;;9.90;3.53;;;20.80;68.90;;;;;;5077796;28;20036;-88
2023/10/13 09:59:34;;;;;;;7.60;3.77;;;20.90;68.80;;;;;;5094234;28;20048;-88
2023/10/13 10:02:08;;;;;;;9.90;3.80;;;20.80;69.70;;;;;;5094488;28;20040;-89
2023/10/13 10:04:51;;;;;;;8.32;3.90;;;20.90;68.80;;;;;;5094434;28;20044;-88
2023/10/13 10:07:28;;;;;;;8.55;3.30;;;20.70;68.00;;;;;;5076893;28;20460;-89
2023/10/13 10:09:58;;;;;;;7.75;3.17;;;20.70;68.10;;;;;;5084744;28;20406;-88
2023/10/13 10:12:41;;;;;;;8.20;3.43;;;20.70;67.90;;;;;;5094004;28;20051;-89
2023/10/13 10:15:43;;;;;;;8.27;3.60;;;20.70;68.80;;;;;;5094090;28;20070;-88
2023/10/13 10:18:25;;;;;;;8.77;3.72;;;20.90;69.00;;;;;;5090915;28;20051;-89
2023/10/13 10:21:07;;;;;;;10.40;3.53;;;21.10;70.20;;;;;;5093755;28;20040;-88
2023/10/13 10:23:43;;;;;;;9.18;3.38;;;21.20;69.40;;;;;;5107990;28;20056;-88
2023/10/13 10:26:15;;;;;;;7.77;3.23;;;21.10;68.70;;;;;;5093780;28;20062;-89
2023/10/13 10:28:43;;;;;;;8.60;3.20;;;21.10;67.20;;;;;;5077079;28;20382;-88
2023/10/13 10:31:16;;;;;;;10.35;3.78;;;21.10;68.20;;;;;;5076949;28;20044;-88
2023/10/13 10:33:45;;;;;;;8.90;3.65;;;21.20;67.40;;;;;;5093689;28;20054;-88
2023/10/13 10:36:15;;;;;;;14.27;4.20;;;21.30;68.10;;;;;;5076752;28;20051;-89
2023/10/13 10:39:05;;;;;;;13.67;4.70;;;21.40;68.50;;;;;;5076754;28;20078;-88
2023/10/13 10:44:42;;;;;;;9.93;4.10;;;21.60;66.20;;;;;;5093372;28;20768;-88
2023/10/13 10:50:20;;;;;;;12.55;4.10;;;21.90;66.70;;;;;;5093600;28;20383;-89
2023/10/13 10:52:48;;;;;;;11.57;4.47;;;21.90;65.30;;;;;;5076378;28;20097;-88
2023/10/13 10:55:20;;;;;;;12.40;5.25;;;21.90;65.80;;;;;;5076372;28;20119;-89
2023/10/13 10:57:58;;;;;;;8.98;4.15;;;22.00;67.00;;;;;;5093348;28;20550;-89
2023/10/13 11:00:26;;;;;;;9.73;4.70;;;22.00;66.60;;;;;;5076283;28;20131;-88
2023/10/13 11:02:54;;;;;;;10.05;3.78;;;22.00;66.00;;;;;;5081489;28;20505;-88
2023/10/13 11:05:32;;;;;;;7.07;3.03;;;22.10;64.40;;;;;;5093369;28;20036;-88
2023/10/13 11:08:00;;;;;;;9.07;2.95;;;22.00;63.70;;;;;;5092949;28;20063;-89
2023/10/13 11:10:31;;;;;;;10.07;2.92;;;22.00;64.70;;;;;;5076505;28;20040;-89
2023/10/13 11:13:50;;;;;;;7.70;2.90;;;22.00;64.10;;;;;;5076251;28;20036;-88
2023/10/13 11:15:50;;;;;;;5.78;2.88;;;22.00;64.90;;;;;;5085163;28;20032;-89
2023/10/13 11:18:23;;;;;;;6.67;3.10;;;22.00;64.60;;;;;;5076229;28;20047;-88
2023/10/13 11:20:56;;;;;;;7.05;2.53;;;22.00;64.10;;;;;;5075683;28;20086;-89
2023/10/13 11:23:25;;;;;;;5.68;2.40;;;22.00;64.30;;;;;;5093057;28;20063;-89
2023/10/13 11:25:59;;;;;;;6.65;3.03;;;22.00;65.50;;;;;;5092576;28;20497;-89
2023/10/13 11:28:27;;;;;;;7.32;2.72;;;22.00;64.20;;;;;;5089102;28;20536;-88
2023/10/13 11:30:58;;;;;;;7.60;2.87;;;22.10;65.40;;;;;;5092825;28;20397;-89
2023/10/13 11:33:28;;;;;;;6.57;2.60;;;22.10;65.00;;;;;;5092991;28;20481;-89
2023/10/13 11:35:57;;;;;;;5.97;2.75;;;22.20;64.00;;;;;;5075899;28;20123;-89
2023/10/13 11:38:28;;;;;;;5.60;2.85;;;22.20;64.50;;;;;;5076285;28;20040;-89
2023/10/13 11:46:14;;;;;;;6.43;2.58;;;22.30;64.90;;;;;;5094381;28;20139;-88
2023/10/13 11:48:54;;;;;;;6.85;2.50;;;22.40;64.90;;;;;;5092259;28;20040;-88
2023/10/13 11:51:24;;;;;;;5.15;2.17;;;22.50;64.00;;;;;;5075221;28;20047;-89
2023/10/13 11:53:55;;;;;;;5.65;2.20;;;22.60;64.30;;;;;;5075942;28;20416;-89
2023/10/13 11:56:23;;;;;;;5.93;2.43;;;22.60;62.70;;;;;;5075721;28;20044;-89
2023/10/13 11:58:50;;;;;;;5.60;2.40;;;22.60;63.30;;;;;;5092098;28;20040;-88
2023/10/13 12:09:18;;;;;;;5.77;2.30;;;22.30;63.40;;;;;;5092539;28;20489;-88
2023/10/13 12:11:53;;;;;;;4.68;1.80;;;22.20;63.30;;;;;;5094882;28;20044;-89
2023/10/13 12:14:31;;;;;;;5.18;2.20;;;22.20;64.50;;;;;;5076841;28;20048;-88
2023/10/13 12:17:04;;;;;;;6.78;2.15;;;22.30;64.30;;;;;;5092571;28;20063;-88
2023/10/13 12:19:34;;;;;;;4.43;1.92;;;22.50;63.90;;;;;;5092096;28;20048;-89
2023/10/13 12:22:08;;;;;;;3.93;1.80;;;22.60;64.20;;;;;;5092127;28;20143;-89
2023/10/13 12:27:19;;;;;;;5.22;1.90;;;22.70;62.80;;;;;;5091975;28;20064;-88
2023/10/13 12:29:51;;;;;;;5.63;1.88;;;22.80;63.70;;;;;;5091507;28;20048;-88
2023/10/13 12:32:24;;;;;;;8.18;2.08;;;22.90;63.70;;;;;;5093711;28;20044;-89
2023/10/13 12:54:04;;;;;;;6.57;1.95;;;22.30;63.30;;;;;;5094915;28;20074;-89
2023/10/13 12:56:32;;;;;;;5.18;2.30;;;22.10;63.90;;;;;;5096724;28;20465;-90
2023/10/13 12:58:59;;;;;;;5.22;2.05;;;22.10;64.50;;;;;;5079148;28;20043;-89
2023/10/13 13:01:32;;;;;;;7.10;1.90;;;22.00;64.80;;;;;;5088351;28;20044;-89
2023/10/13 13:04:03;;;;;;;4.78;1.80;;;22.00;65.80;;;;;;5078685;28;20040;-89
2023/10/13 13:06:30;;;;;;;5.57;2.08;;;22.00;65.50;;;;;;5070270;28;20083;-89
2023/10/13 13:08:59;;;;;;;5.85;2.13;;;22.10;66.20;;;;;;5085734;28;20482;-89
2023/10/13 13:11:29;;;;;;;5.68;2.25;;;22.10;66.50;;;;;;5078895;28;20413;-89
2023/10/13 13:13:57;;;;;;;7.57;1.93;;;22.30;66.50;;;;;;5095507;28;20044;-89
2023/10/13 13:16:24;;;;;;;5.75;2.53;;;22.30;65.50;;;;;;5088447;28;20046;-89
2023/10/13 13:18:51;;;;;;;4.18;2.15;;;22.30;65.40;;;;;;5078233;28;20044;-88
2023/10/13 13:21:24;;;;;;;6.68;2.38;;;22.20;64.80;;;;;;5078283;28;20044;-88
2023/10/13 13:23:54;;;;;;;6.93;2.03;;;22.20;65.80;;;;;;5094880;28;20107;-89
2023/10/13 13:26:22;;;;;;;6.20;2.20;;;22.10;65.20;;;;;;5094853;28;20044;-88
2023/10/13 13:28:50;;;;;;;6.90;2.25;;;22.00;66.20;;;;;;5077971;28;20051;-88
2023/10/13 13:31:26;;;;;;;5.95;2.50;;;22.00;65.90;;;;;;5094625;28;20093;-88
2023/10/13 13:33:53;;;;;;;5.90;2.15;;;22.00;65.60;;;;;;5077494;28;20505;-88
2023/10/13 13:36:22;;;;;;;7.38;2.60;;;22.00;65.90;;;;;;5078932;28;20048;-88
2023/10/13 13:38:50;;;;;;;7.70;2.50;;;22.10;66.20;;;;;;5094565;28;20383;-88
2023/10/13 13:41:18;;;;;;;5.75;2.30;;;22.10;66.10;;;;;;5084792;28;20144;-88
2023/10/13 13:46:18;;;;;;;6.45;2.00;;;22.10;65.70;;;;;;5094306;28;20052;-88
2023/10/13 13:48:48;;;;;;;4.88;2.10;;;22.10;65.50;;;;;;5077687;28;20085;-88
2023/10/13 13:51:15;;;;;;;4.97;2.57;;;22.30;65.80;;;;;;5084603;28;20105;-88
2023/10/13 13:53:47;;;;;;;7.18;2.40;;;22.40;65.70;;;;;;5078816;28;20036;-88
2023/10/13 13:56:18;;;;;;;7.93;2.55;;;22.70;65.50;;;;;;5077612;28;20044;-89
2023/10/13 13:58:47;;;;;;;7.03;2.70;;;22.80;64.80;;;;;;5079018;28;20036;-88
2023/10/13 14:01:15;;;;;;;7.40;2.70;;;22.90;63.40;;;;;;5077412;28;20485;-88
2023/10/13 14:03:45;;;;;;;9.87;3.07;;;22.90;62.70;;;;;;5094184;28;20062;-88
2023/10/13 14:06:26;;;;;;;9.55;3.20;;;22.90;61.60;;;;;;5067607;28;20049;-88
2023/10/13 14:08:59;;;;;;;8.07;3.20;;;22.90;62.10;;;;;;5093856;28;20047;-88
2023/10/13 14:14:13;;;;;;;6.50;3.03;;;22.90;61.00;;;;;;5093609;28;20044;-88
2023/10/13 14:16:46;;;;;;;9.50;3.37;;;22.90;61.40;;;;;;5077037;28;20432;-87
2023/10/13 14:19:26;;;;;;;9.63;3.40;;;22.80;61.30;;;;;;5093926;28;20040;-88
2023/10/13 14:21:57;;;;;;;9.80;3.47;;;22.80;61.50;;;;;;5070211;28;20488;-88
2023/10/13 14:24:32;;;;;;;9.32;3.67;;;22.80;62.40;;;;;;5076914;28;20131;-88
2023/10/13 14:27:15;;;;;;;9.48;3.22;;;22.70;62.70;;;;;;5093561;28;20557;-88
2023/10/13 14:29:42;;;;;;;7.23;3.30;;;22.60;62.80;;;;;;5092690;28;20040;-87
2023/10/13 14:32:12;;;;;;;8.20;2.70;;;22.50;63.00;;;;;;5076845;28;20054;-88
2023/10/13 14:34:54;;;;;;;9.25;3.33;;;22.40;62.60;;;;;;5093037;28;20047;-87
2023/10/13 14:37:30;;;;;;;8.07;3.03;;;22.20;62.70;;;;;;5076276;28;20055;-87
2023/10/13 14:39:59;;;;;;;9.43;3.17;;;22.20;63.10;;;;;;5092808;28;20094;-88
2023/10/13 14:42:28;;;;;;;11.80;3.20;;;22.10;63.00;;;;;;5076390;28;20079;-87
2023/10/13 14:44:55;;;;;;;12.07;3.13;;;22.20;63.10;;;;;;5093310;28;20051;-88
2023/10/13 14:47:25;;;;;;;9.50;3.08;;;22.20;63.10;;;;;;5108748;28;20402;-87
2023/10/13 14:50:01;;;;;;;10.75;3.15;;;22.20;63.80;;;;;;5093209;28;20040;-88
2023/10/13 14:52:31;;;;;;;13.50;3.20;;;22.20;64.10;;;;;;5086035;28;20044;-88
2023/10/13 14:54:59;;;;;;;9.37;3.73;;;22.10;64.30;;;;;;5075852;28;20040;-88
2023/10/13 14:57:27;;;;;;;11.75;3.33;;;22.10;64.70;;;;;;5094106;28;20036;-88
2023/10/13 14:59:54;;;;;;;11.90;3.55;;;22.00;64.90;;;;;;5076046;28;20050;-88
2023/10/13 15:02:22;;;;;;;8.10;3.33;;;22.10;64.80;;;;;;5075826;28;20044;-87
2023/10/13 15:04:49;;;;;;;9.07;3.67;;;22.10;65.20;;;;;;5076289;28;20043;-88
2023/10/13 15:07:19;;;;;;;10.57;3.90;;;22.00;65.30;;;;;;5092925;28;20040;-88
2023/10/13 15:09:46;;;;;;;8.68;3.67;;;21.90;65.60;;;;;;5092836;28;20130;-88
2023/10/13 15:12:14;;;;;;;9.45;3.05;;;21.80;65.90;;;;;;5075628;28;20138;-87
2023/10/13 15:14:46;;;;;;;12.88;3.80;;;21.80;65.60;;;;;;5092232;28;20047;-88
2023/10/13 15:17:15;;;;;;;11.45;2.92;;;21.70;66.20;;;;;;5092766;28;20048;-87
2023/10/13 15:19:43;;;;;;;13.60;3.83;;;21.70;66.90;;;;;;5090543;28;20555;-88
2023/10/13 15:22:16;;;;;;;12.00;3.80;;;21.60;67.30;;;;;;5081339;28;20383;-87
2023/10/13 15:24:45;;;;;;;16.23;5.70;;;21.60;67.90;;;;;;5092333;28;20062;-87
2023/10/13 15:27:14;;;;;;;15.48;5.55;;;21.50;68.30;;;;;;5092377;28;20055;-87
2023/10/13 15:29:50;;;;;;;12.73;4.97;;;21.40;68.00;;;;;;5075073;28;20082;-87
2023/10/13 15:35:04;;;;;;;11.63;4.68;;;21.40;68.90;;;;;;5092444;28;20044;-88
2023/10/13 15:37:31;;;;;;;13.52;4.07;;;21.40;69.20;;;;;;5075680;28;20039;-88
2023/10/13 15:40:00;;;;;;;10.82;4.38;;;21.30;68.80;;;;;;5093719;28;20067;-88
2023/10/13 15:42:27;;;;;;;9.93;4.68;;;21.10;69.30;;;;;;5082677;28;20055;-88
2023/10/13 15:44:54;;;;;;;12.53;5.60;;;20.90;69.90;;;;;;5092577;28;20090;-88
2023/10/13 15:47:21;;;;;;;14.25;5.88;;;20.80;70.40;;;;;;5075504;28;20185;-87
2023/10/13 15:50:10;;;;;;;17.48;6.47;;;20.60;71.50;;;;;;5078313;28;20130;-88
2023/10/13 15:52:45;;;;;;;13.80;6.22;;;20.50;72.00;;;;;;5075896;28;20101;-89
2023/10/13 15:55:17;;;;;;;13.07;6.65;;;20.40;72.30;;;;;;5091932;28;20123;-88
2023/10/13 15:57:44;;;;;;;17.40;6.40;;;20.30;72.90;;;;;;5073305;28;20042;-87
2023/10/13 16:00:25;;;;;;;15.48;6.72;;;20.10;73.30;;;;;;5091775;28;20036;-87
2023/10/13 16:02:54;;;;;;;12.60;6.90;;;20.10;73.50;;;;;;5092180;28;20044;-87
2023/10/13 16:05:23;;;;;;;11.02;6.35;;;20.10;73.70;;;;;;5075233;28;20127;-87
2023/10/13 16:07:53;;;;;;;13.48;6.60;;;20.00;74.00;;;;;;5078655;28;20048;-88
2023/10/13 16:10:23;;;;;;;11.90;6.43;;;19.90;74.20;;;;;;5081514;28;20041;-88
2023/10/13 16:12:50;;;;;;;12.98;6.55;;;19.80;74.20;;;;;;5078751;28;20520;-87
2023/10/13 16:15:18;;;;;;;16.48;7.35;;;19.80;74.10;;;;;;5095676;28;20079;-88
2023/10/13 16:17:45;;;;;;;11.80;6.50;;;19.70;74.20;;;;;;5078915;28;20398;-88
2023/10/13 16:20:15;;;;;;;16.35;7.05;;;19.70;74.40;;;;;;5078713;28;20040;-88
2023/10/13 16:22:44;;;;;;;14.60;6.90;;;19.60;74.40;;;;;;5081231;28;20050;-87
2023/10/13 16:25:12;;;;;;;16.20;7.07;;;19.60;74.60;;;;;;5079312;28;20071;-88
2023/10/13 16:27:46;;;;;;;14.18;6.90;;;19.60;74.80;;;;;;5079600;28;20052;-87
2023/10/13 16:30:19;;;;;;;14.40;7.15;;;19.50;74.80;;;;;;5079118;28;20442;-88
2023/10/13 16:32:47;;;;;;;15.23;7.45;;;19.50;74.60;;;;;;5095284;28;20050;-88
2023/10/13 16:35:17;;;;;;;15.87;6.83;;;19.50;74.70;;;;;;5079551;28;20076;-88
2023/10/13 16:37:45;;;;;;;14.00;7.63;;;19.50;74.80;;;;;;5095272;28;20036;-88
2023/10/13 16:40:18;;;;;;;14.55;7.80;;;19.50;74.90;;;;;;5096287;28;20028;-88
2023/10/13 16:42:49;;;;;;;13.70;7.07;;;19.50;74.90;;;;;;5094677;28;20044;-87
2023/10/13 16:45:22;;;;;;;13.93;6.65;;;19.40;75.10;;;;;;5095141;28;20047;-87